createdAt,value
2023-02-15T00:01:10.789Z,87.61
2023-02-15T00:04:51.270Z,87.61
2023-02-15T00:08:18.449Z,87.42
2023-02-15T00:11:52.060Z,87.59
2023-02-15T00:15:29.762Z,87.72
2023-02-15T00:19:02.873Z,87.55
2023-02-15T00:22:32.951Z,87.76
2023-02-15T00:26:10.281Z,88.07
2023-02-15T00:29:37.598Z,88.04
2023-02-15T00:33:05.138Z,87.95
2023-02-15T00:36:34.498Z,87.92
2023-02-15T00:40:01.624Z,88.01
2023-02-15T00:43:32.691Z,88.13
2023-02-15T00:46:59.845Z,87.96
2023-02-15T00:50:27.189Z,88.08
2023-02-15T00:53:55.013Z,88.02
2023-02-15T00:57:25.333Z,88.06
2023-02-15T01:00:53.054Z,88.14
2023-02-15T01:04:24.508Z,88.14
2023-02-15T01:07:54.094Z,88.29
2023-02-15T01:11:25.435Z,88.17
2023-02-15T01:14:52.739Z,88.33
2023-02-15T01:18:20.851Z,88.58
2023-02-15T01:21:49.714Z,88.47
2023-02-15T01:25:17.248Z,88.37
2023-02-15T01:28:44.670Z,88.71
2023-02-15T01:32:12.444Z,88.73
2023-02-15T01:35:40.455Z,88.90
2023-02-15T01:39:08.734Z,88.89
2023-02-15T01:42:36.436Z,89.03
2023-02-15T01:46:06.887Z,88.98
2023-02-15T01:49:34.821Z,88.92
2023-02-15T01:53:08.490Z,89.11
2023-02-15T01:56:40.042Z,89.03
2023-02-15T02:00:09.973Z,88.95
2023-02-15T02:03:51.390Z,89.08
2023-02-15T02:07:21.854Z,89.17
2023-02-15T02:10:49.003Z,89.21
2023-02-15T02:14:16.673Z,89.19
2023-02-15T02:17:57.484Z,89.15
2023-02-15T02:22:01.097Z,89.15
2023-02-15T02:25:58.092Z,89.25
2023-02-15T02:30:13.037Z,89.01
2023-02-15T02:33:49.366Z,89.20
2023-02-15T02:37:26.815Z,88.87
2023-02-15T02:40:59.535Z,88.79
2023-02-15T02:44:31.590Z,89.17
2023-02-15T02:48:04.299Z,89.09
2023-02-15T02:51:31.518Z,89.07
2023-02-15T02:55:00.792Z,89.20
2023-02-15T02:58:40.878Z,89.42
2023-02-15T03:02:14.372Z,89.35
2023-02-15T03:05:46.822Z,89.57
2023-02-15T03:09:19.063Z,89.66
2023-02-15T03:12:46.776Z,89.79
2023-02-15T03:16:30.477Z,89.74
2023-02-15T03:20:01.588Z,89.85
2023-02-15T03:23:30.410Z,89.97
2023-02-15T03:27:01.175Z,89.91
2023-02-15T03:30:29.904Z,89.89
2023-02-15T03:33:58.001Z,90.04
2023-02-15T03:37:33.472Z,90.05
2023-02-15T03:41:13.649Z,90.23
2023-02-15T03:44:52.046Z,90.33
2023-02-15T03:48:20.491Z,90.38
2023-02-15T03:51:52.470Z,90.42
2023-02-15T03:55:22.394Z,90.56
2023-02-15T03:59:07.618Z,90.39
2023-02-15T04:02:43.744Z,90.62
2023-02-15T04:06:11.274Z,90.58
2023-02-15T04:09:56.167Z,90.79
2023-02-15T04:13:32.431Z,90.62
2023-02-15T04:16:59.614Z,90.88
2023-02-15T04:20:44.207Z,91.10
2023-02-15T04:24:29.739Z,91.25
2023-02-15T04:27:57.914Z,91.15
2023-02-15T04:31:25.364Z,91.14
2023-02-15T04:34:53.036Z,91.52
2023-02-15T04:38:20.314Z,91.34
2023-02-15T04:41:48.850Z,91.35
2023-02-15T04:45:16.120Z,91.40
2023-02-15T04:48:44.830Z,91.39
2023-02-15T04:52:23.276Z,91.44
2023-02-15T04:55:50.505Z,91.56
2023-02-15T04:59:18.393Z,91.30
2023-02-15T05:02:45.600Z,91.33
2023-02-15T05:06:13.262Z,91.20
2023-02-15T05:09:40.489Z,91.29
2023-02-15T05:13:07.733Z,91.24
2023-02-15T05:16:37.824Z,91.27
2023-02-15T05:20:06.299Z,91.46
2023-02-15T05:23:33.720Z,91.40
2023-02-15T05:27:26.373Z,91.18
2023-02-15T05:31:02.020Z,91.08
2023-02-15T05:34:29.632Z,91.26
2023-02-15T05:37:56.826Z,91.37
2023-02-15T05:41:24.156Z,91.45
2023-02-15T05:44:51.379Z,91.45
2023-02-15T05:48:19.089Z,91.72
2023-02-15T05:51:46.271Z,91.67
2023-02-15T05:55:13.707Z,91.63
2023-02-15T05:58:42.669Z,91.69
2023-02-15T06:02:14.130Z,91.80
2023-02-15T06:05:41.545Z,91.76
2023-02-15T06:09:08.912Z,91.75
2023-02-15T06:12:36.703Z,91.63
2023-02-15T06:16:04.445Z,91.71
2023-02-15T06:19:34.999Z,91.84
2023-02-15T06:23:02.424Z,91.93
2023-02-15T06:26:29.786Z,92.03
2023-02-15T06:29:56.920Z,92.12
2023-02-15T06:33:24.664Z,92.22
2023-02-15T06:36:54.905Z,92.52
2023-02-15T06:40:22.496Z,92.85
2023-02-15T06:43:49.817Z,92.90
2023-02-15T06:47:17.254Z,92.90
2023-02-15T06:50:44.601Z,92.90
2023-02-15T06:54:15.023Z,92.96
2023-02-15T06:57:42.825Z,92.98
2023-02-15T07:01:11.227Z,92.90
2023-02-15T07:04:39.330Z,92.76
2023-02-15T07:08:07.178Z,92.59
2023-02-15T07:11:52.397Z,92.28
2023-02-15T07:15:22.845Z,92.12
2023-02-15T07:18:50.196Z,91.95
2023-02-15T07:22:17.510Z,91.63
2023-02-15T07:25:45.881Z,91.68
2023-02-15T07:29:20.783Z,91.53
2023-02-15T07:33:06.084Z,91.28
2023-02-15T07:36:33.776Z,91.32
2023-02-15T07:40:01.108Z,90.81
2023-02-15T07:43:28.798Z,90.59
2023-02-15T07:46:56.056Z,90.59
2023-02-15T07:50:23.616Z,90.34
2023-02-15T07:53:52.721Z,90.02
2023-02-15T07:57:20.118Z,90.14
2023-02-15T08:01:02.283Z,90.29
2023-02-15T08:04:29.753Z,89.99
2023-02-15T08:07:57.027Z,89.76
2023-02-15T08:11:30.318Z,89.72
2023-02-15T08:14:57.562Z,89.69
2023-02-15T08:18:25.031Z,89.67
2023-02-15T08:21:54.442Z,89.31
2023-02-15T08:25:21.649Z,89.05
2023-02-15T08:28:50.090Z,88.70
2023-02-15T08:32:17.267Z,89.01
2023-02-15T08:35:44.475Z,89.21
2023-02-15T08:39:12.199Z,89.37
2023-02-15T08:42:39.366Z,89.18
2023-02-15T08:46:06.921Z,89.51
2023-02-15T08:49:34.324Z,89.36
2023-02-15T08:53:01.521Z,89.66
2023-02-15T08:56:40.108Z,89.58
2023-02-15T09:00:09.962Z,89.77
2023-02-15T09:03:40.330Z,89.66
2023-02-15T09:07:07.556Z,89.77
2023-02-15T09:10:34.731Z,89.94
2023-02-15T09:14:03.939Z,89.84
2023-02-15T09:17:31.101Z,89.86
2023-02-15T09:20:59.783Z,89.72
2023-02-15T09:24:27.117Z,89.63
2023-02-15T09:27:54.304Z,89.55
2023-02-15T09:31:23.794Z,89.40
2023-02-15T09:34:50.983Z,89.03
2023-02-15T09:38:18.179Z,89.03
2023-02-15T09:42:04.072Z,89.19
2023-02-15T09:45:43.056Z,88.94
2023-02-15T09:49:19.901Z,88.51
2023-02-15T09:53:06.457Z,88.23
2023-02-15T09:56:39.989Z,87.89
2023-02-15T10:00:17.340Z,88.29
2023-02-15T10:04:02.991Z,87.44
2023-02-15T10:07:49.477Z,87.36
2023-02-15T10:11:41.834Z,87.03
2023-02-15T10:15:26.343Z,87.03
2023-02-15T10:19:06.754Z,86.82
2023-02-15T10:22:43.610Z,86.47
2023-02-15T10:26:22.198Z,86.41
2023-02-15T10:30:12.022Z,86.15
2023-02-15T10:33:44.356Z,85.77
2023-02-15T10:37:35.630Z,85.71
2023-02-15T10:41:15.402Z,84.84
2023-02-15T10:44:48.224Z,84.54
2023-02-15T10:48:30.106Z,84.64
2023-02-15T10:52:12.749Z,83.77
2023-02-15T10:55:52.132Z,83.79
2023-02-15T10:59:35.390Z,84.03
2023-02-15T11:03:25.936Z,83.09
2023-02-15T11:06:56.983Z,82.89
2023-02-15T11:10:34.066Z,82.69
2023-02-15T11:14:05.223Z,82.75
2023-02-15T11:17:40.562Z,82.93
2023-02-15T11:21:14.011Z,82.50
2023-02-15T11:24:45.482Z,81.98
2023-02-15T11:28:22.688Z,82.04
2023-02-15T11:31:53.179Z,81.93
2023-02-15T11:35:29.400Z,80.36
2023-02-15T11:39:04.728Z,79.72
2023-02-15T11:42:34.584Z,79.37
2023-02-15T11:46:01.873Z,79.13
2023-02-15T11:49:32.740Z,79.45
2023-02-15T11:53:03.777Z,78.76
2023-02-15T11:56:34.267Z,78.33
2023-02-15T12:00:06.189Z,79.01
2023-02-15T12:03:46.843Z,78.65
2023-02-15T12:07:29.699Z,78.43
2023-02-15T12:11:05.104Z,78.30
2023-02-15T12:14:50.610Z,77.99
2023-02-15T12:18:29.010Z,77.31
2023-02-15T12:21:56.970Z,77.10
2023-02-15T12:25:28.465Z,77.05
2023-02-15T12:28:58.987Z,77.03
2023-02-15T12:32:29.865Z,76.77
2023-02-15T12:36:03.045Z,75.92
2023-02-15T12:39:32.554Z,75.85
2023-02-15T12:43:00.194Z,76.11
2023-02-15T12:46:28.903Z,76.07
2023-02-15T12:50:18.063Z,76.24
2023-02-15T12:53:45.717Z,76.30
2023-02-15T12:57:27.407Z,76.19
2023-02-15T13:01:12.057Z,76.23
2023-02-15T13:04:49.663Z,75.94
2023-02-15T13:08:19.685Z,75.69
2023-02-15T13:11:48.824Z,75.60
2023-02-15T13:15:35.234Z,75.45
2023-02-15T13:19:08.146Z,75.57
2023-02-15T13:22:43.269Z,74.97
2023-02-15T13:26:18.866Z,74.78
2023-02-15T13:29:50.814Z,75.02
2023-02-15T13:33:27.219Z,75.07
2023-02-15T13:37:00.124Z,74.88
2023-02-15T13:40:40.102Z,74.65
2023-02-15T13:44:17.408Z,74.63
2023-02-15T13:47:55.484Z,74.83
2023-02-15T13:51:40.828Z,74.27
2023-02-15T13:55:38.805Z,74.30
2023-02-15T13:59:21.807Z,74.29
2023-02-15T14:03:17.292Z,74.48
2023-02-15T14:07:00.898Z,74.56
2023-02-15T14:10:49.236Z,74.40
2023-02-15T14:14:58.817Z,74.32
2023-02-15T14:18:32.166Z,74.24
2023-02-15T14:22:09.492Z,74.31
2023-02-15T14:25:43.467Z,74.35
2023-02-15T14:29:25.169Z,74.32
2023-02-15T14:32:56.160Z,74.21
2023-02-15T14:36:25.117Z,74.33
2023-02-15T14:40:17.590Z,74.33
2023-02-15T14:43:58.928Z,74.36
2023-02-15T14:47:34.012Z,74.64
2023-02-15T14:51:02.527Z,74.53
2023-02-15T14:54:59.840Z,74.62
2023-02-15T14:58:27.166Z,74.37
2023-02-15T15:02:05.978Z,74.50
2023-02-15T15:05:48.120Z,74.53
2023-02-15T15:09:22.811Z,74.62
2023-02-15T15:12:51.044Z,74.77
2023-02-15T15:16:53.935Z,74.73
2023-02-15T15:20:51.757Z,74.93
2023-02-15T15:24:52.057Z,74.73
2023-02-15T15:28:49.481Z,74.94
2023-02-15T15:32:27.909Z,74.81
2023-02-15T15:36:16.424Z,75.00
2023-02-15T15:40:21.739Z,74.92
2023-02-15T15:44:22.362Z,74.98
2023-02-15T15:48:10.881Z,74.86
2023-02-15T15:51:44.493Z,75.05
2023-02-15T15:55:20.239Z,75.28
2023-02-15T15:58:52.524Z,75.16
2023-02-15T16:02:24.622Z,75.28
2023-02-15T16:05:55.351Z,75.49
2023-02-15T16:09:25.065Z,75.57
2023-02-15T16:12:53.424Z,75.56
2023-02-15T16:16:28.858Z,75.90
2023-02-15T16:20:00.845Z,75.90
2023-02-15T16:24:00.694Z,76.29
2023-02-15T16:27:39.598Z,76.19
2023-02-15T16:31:17.150Z,76.31
2023-02-15T16:34:55.006Z,76.70
2023-02-15T16:38:24.096Z,76.38
2023-02-15T16:41:56.539Z,76.75
2023-02-15T16:45:28.357Z,77.09
2023-02-15T16:49:00.970Z,77.11
2023-02-15T16:52:32.010Z,77.32
2023-02-15T16:56:01.785Z,77.38
2023-02-15T16:59:43.285Z,77.52
2023-02-15T17:03:25.892Z,77.67
2023-02-15T17:07:05.440Z,77.77
2023-02-15T17:10:37.280Z,77.91
2023-02-15T17:14:31.158Z,78.07
2023-02-15T17:18:02.581Z,78.34
2023-02-15T17:21:34.471Z,78.40
2023-02-15T17:25:05.534Z,78.59
2023-02-15T17:28:34.359Z,78.70
2023-02-15T17:32:02.912Z,78.79
2023-02-15T17:35:32.242Z,78.96
2023-02-15T17:39:20.653Z,79.25
2023-02-15T17:42:47.936Z,79.42
2023-02-15T17:46:17.238Z,79.50
2023-02-15T17:49:44.904Z,79.68
2023-02-15T17:53:13.698Z,79.82
2023-02-15T17:56:41.792Z,79.91
2023-02-15T18:00:32.503Z,80.08
2023-02-15T18:04:17.514Z,80.13
2023-02-15T18:08:02.771Z,80.23
2023-02-15T18:11:37.625Z,80.44
2023-02-15T18:15:05.537Z,80.59
2023-02-15T18:18:32.793Z,80.61
2023-02-15T18:22:00.097Z,80.77
2023-02-15T18:25:27.395Z,80.69
2023-02-15T18:28:54.953Z,80.82
2023-02-15T18:32:32.725Z,81.07
2023-02-15T18:36:00.091Z,81.20
2023-02-15T18:39:37.946Z,81.21
2023-02-15T18:43:05.524Z,81.13
2023-02-15T18:46:32.782Z,81.39
2023-02-15T18:50:00.467Z,81.40
2023-02-15T18:53:28.148Z,81.47
2023-02-15T18:56:58.521Z,81.72
2023-02-15T19:00:28.396Z,81.94
2023-02-15T19:03:55.840Z,82.14
2023-02-15T19:07:26.223Z,82.18
2023-02-15T19:10:54.047Z,82.25
2023-02-15T19:14:30.933Z,82.04
2023-02-15T19:17:58.702Z,82.17
2023-02-15T19:21:28.130Z,82.26
2023-02-15T19:24:57.031Z,82.28
2023-02-15T19:28:30.643Z,82.31
2023-02-15T19:31:58.596Z,82.57
2023-02-15T19:35:28.501Z,82.45
2023-02-15T19:38:57.140Z,82.60
2023-02-15T19:42:25.582Z,82.69
2023-02-15T19:45:53.232Z,83.19
2023-02-15T19:49:20.450Z,83.15
2023-02-15T19:52:48.314Z,83.23
2023-02-15T19:56:23.545Z,83.03
2023-02-15T19:59:50.930Z,83.39
2023-02-15T20:03:18.549Z,83.27
2023-02-15T20:06:46.414Z,83.51
2023-02-15T20:10:22.455Z,83.41
2023-02-15T20:13:52.316Z,83.57
2023-02-15T20:17:20.069Z,83.71
2023-02-15T20:20:49.533Z,83.92
2023-02-15T20:24:20.152Z,83.79
2023-02-15T20:27:47.479Z,83.80
2023-02-15T20:31:17.655Z,84.05
2023-02-15T20:34:44.987Z,83.90
2023-02-15T20:38:19.679Z,83.92
2023-02-15T20:41:49.964Z,84.08
2023-02-15T20:45:22.358Z,84.01
2023-02-15T20:48:52.774Z,84.08
2023-02-15T20:52:22.264Z,84.10
2023-02-15T20:55:48.167Z,84.13
2023-02-15T20:59:26.101Z,84.41
2023-02-15T21:02:56.151Z,84.23
2023-02-15T21:06:23.739Z,84.43
2023-02-15T21:09:52.495Z,84.64
2023-02-15T21:13:26.265Z,84.75
2023-02-15T21:17:04.847Z,84.64
2023-02-15T21:20:34.562Z,84.99
2023-02-15T21:24:00.105Z,85.04
2023-02-15T21:27:27.498Z,85.23
2023-02-15T21:31:04.276Z,85.14
2023-02-15T21:34:31.839Z,85.22
2023-02-15T21:37:59.205Z,85.58
2023-02-15T21:41:46.774Z,85.87
2023-02-15T21:45:36.654Z,86.03
2023-02-15T21:49:04.726Z,86.45
2023-02-15T21:52:31.924Z,86.74
2023-02-15T21:56:00.918Z,87.10
2023-02-15T21:59:39.219Z,87.09
2023-02-15T22:03:09.388Z,87.13
2023-02-15T22:06:37.080Z,87.04
2023-02-15T22:10:05.021Z,87.06
2023-02-15T22:13:34.961Z,86.86
2023-02-15T22:17:18.899Z,87.17
2023-02-15T22:20:51.361Z,87.22
2023-02-15T22:24:30.246Z,86.75
2023-02-15T22:27:58.362Z,86.58
2023-02-15T22:31:26.265Z,86.57
2023-02-15T22:34:54.598Z,86.73
2023-02-15T22:38:21.951Z,86.48
2023-02-15T22:41:49.896Z,86.54
2023-02-15T22:45:23.126Z,86.68
2023-02-15T22:48:51.605Z,86.98
2023-02-15T22:52:19.214Z,86.97
2023-02-15T22:55:47.066Z,87.20
2023-02-15T22:59:21.704Z,87.07
2023-02-15T23:03:20.288Z,87.30
2023-02-15T23:06:51.704Z,87.31
2023-02-15T23:10:24.283Z,87.44
2023-02-15T23:13:52.034Z,87.33
2023-02-15T23:17:19.436Z,87.42
2023-02-15T23:20:47.253Z,87.35
2023-02-15T23:24:20.405Z,87.37
2023-02-15T23:28:00.038Z,87.26
2023-02-15T23:31:30.248Z,87.29
2023-02-15T23:34:57.596Z,87.16
2023-02-15T23:38:29.571Z,87.15
2023-02-15T23:41:57.080Z,87.58
2023-02-15T23:45:26.514Z,87.67
2023-02-15T23:48:52.956Z,87.80
2023-02-15T23:52:20.140Z,87.91
2023-02-15T23:55:50.220Z,87.92
2023-02-15T23:59:20.820Z,87.79
